createdAt,value
2019-05-18T00:00:40.468Z,73.63
2019-05-18T00:01:40.468Z,73.43
2019-05-18T00:02:40.448Z,73.70
2019-05-18T00:03:40.441Z,73.39
2019-05-18T00:04:45.469Z,73.39
2019-05-18T00:05:40.423Z,73.33
2019-05-18T00:06:40.438Z,73.39
2019-05-18T00:07:40.396Z,73.63
2019-05-18T00:08:40.384Z,73.43
2019-05-18T00:09:40.369Z,73.33
2019-05-18T00:10:40.358Z,73.63
2019-05-18T00:11:40.366Z,74.14
2019-05-18T00:12:40.345Z,73.83
2019-05-18T00:13:40.322Z,74.00
2019-05-18T00:14:40.311Z,73.73
2019-05-18T00:15:45.325Z,73.93
2019-05-18T00:16:40.291Z,73.83
2019-05-18T00:17:40.299Z,74.38
2019-05-18T00:18:40.270Z,74.54
2019-05-18T00:19:40.263Z,74.54
2019-05-18T00:20:40.257Z,74.27
2019-05-18T00:21:40.234Z,74.58
2019-05-18T00:22:40.231Z,74.54
2019-05-18T00:23:40.209Z,74.68
2019-05-18T00:24:40.198Z,74.58
2019-05-18T00:25:40.188Z,74.24
2019-05-18T00:26:45.195Z,74.48
2019-05-18T00:27:40.174Z,74.34
2019-05-18T00:28:40.151Z,74.74
2019-05-18T00:29:40.142Z,73.97
2019-05-18T00:30:40.134Z,73.87
2019-05-18T00:31:40.116Z,74.17
2019-05-18T00:32:40.121Z,74.38
2019-05-18T00:33:40.098Z,74.48
2019-05-18T00:34:40.082Z,74.88
2019-05-18T00:35:40.072Z,74.17
2019-05-18T00:36:40.062Z,74.07
2019-05-18T00:37:45.095Z,74.98
2019-05-18T00:38:40.107Z,74.27
2019-05-18T00:39:40.029Z,74.17
2019-05-18T00:40:40.056Z,74.41
2019-05-18T00:41:40.003Z,74.10
2019-05-18T00:42:40.016Z,75.12
2019-05-18T00:43:39.989Z,74.82
2019-05-18T00:44:39.972Z,74.41
2019-05-18T00:45:39.960Z,75.02
2019-05-18T00:46:39.945Z,74.62
2019-05-18T00:47:41.924Z,74.41
2019-05-18T00:48:44.956Z,75.12
2019-05-18T00:49:39.924Z,74.92
2019-05-18T00:50:39.898Z,74.92
2019-05-18T00:51:39.887Z,74.41
2019-05-18T00:52:39.878Z,75.32
2019-05-18T00:53:39.878Z,75.36
2019-05-18T00:54:39.856Z,75.12
2019-05-18T00:55:39.843Z,75.02
2019-05-18T00:56:39.841Z,74.92
2019-05-18T00:57:39.818Z,75.02
2019-05-18T00:58:39.821Z,75.32
2019-05-18T00:59:44.818Z,75.12
2019-05-18T01:00:39.813Z,75.36
2019-05-18T01:01:39.825Z,75.87
2019-05-18T01:02:39.761Z,75.73
2019-05-18T01:03:39.761Z,75.67
2019-05-18T01:04:39.755Z,75.97
2019-05-18T01:05:39.728Z,75.05
2019-05-18T01:06:39.715Z,75.76
2019-05-18T01:07:39.707Z,75.16
2019-05-18T01:08:39.708Z,75.32
2019-05-18T01:09:39.684Z,75.22
2019-05-18T01:10:44.693Z,75.26
2019-05-18T01:11:39.660Z,75.43
2019-05-18T01:12:39.667Z,75.32
2019-05-18T01:13:39.658Z,75.32
2019-05-18T01:14:39.623Z,75.52
2019-05-18T01:15:39.613Z,75.12
2019-05-18T01:16:39.603Z,75.22
2019-05-18T01:17:39.593Z,74.41
2019-05-18T01:18:39.597Z,74.92
2019-05-18T01:19:39.571Z,74.82
2019-05-18T01:20:39.558Z,74.62
2019-05-18T01:21:44.568Z,75.43
2019-05-18T01:22:39.533Z,75.43
2019-05-18T01:23:39.534Z,75.16
2019-05-18T01:24:39.510Z,75.36
2019-05-18T01:25:39.507Z,75.22
2019-05-18T01:26:39.488Z,75.56
2019-05-18T01:27:39.477Z,75.05
2019-05-18T01:28:39.484Z,75.52
2019-05-18T01:29:39.454Z,75.05
2019-05-18T01:30:39.444Z,75.16
2019-05-18T01:31:39.434Z,75.46
2019-05-18T01:32:44.448Z,74.44
2019-05-18T01:33:39.409Z,74.65
2019-05-18T01:34:39.411Z,74.65
2019-05-18T01:35:39.386Z,74.92
2019-05-18T01:36:39.375Z,74.82
2019-05-18T01:37:39.371Z,74.92
2019-05-18T01:38:39.359Z,74.92
2019-05-18T01:39:39.358Z,75.32
2019-05-18T01:40:39.332Z,74.21
2019-05-18T01:41:39.316Z,74.31
2019-05-18T01:42:39.306Z,74.34
2019-05-18T01:43:44.318Z,74.31
2019-05-18T01:44:39.295Z,74.51
2019-05-18T01:45:39.272Z,74.41
2019-05-18T01:46:39.259Z,74.10
2019-05-18T01:47:39.254Z,75.02
2019-05-18T01:48:39.237Z,74.41
2019-05-18T01:49:39.263Z,73.90
2019-05-18T01:50:39.220Z,74.31
2019-05-18T01:51:39.205Z,73.80
2019-05-18T01:52:39.200Z,74.41
2019-05-18T01:53:39.182Z,74.31
2019-05-18T01:54:44.203Z,74.01
2019-05-18T01:55:39.159Z,74.62
2019-05-18T01:56:39.149Z,74.21
2019-05-18T01:57:39.135Z,74.51
2019-05-18T01:58:39.122Z,74.21
2019-05-18T01:59:39.127Z,74.51
2019-05-18T02:00:39.100Z,74.31
2019-05-18T02:01:39.093Z,74.51
2019-05-18T02:02:39.084Z,74.62
2019-05-18T02:03:39.069Z,74.31
2019-05-18T02:04:39.075Z,74.82
2019-05-18T02:05:44.079Z,74.62
2019-05-18T02:06:39.041Z,73.80
2019-05-18T02:07:39.020Z,74.82
2019-05-18T02:08:39.019Z,74.62
2019-05-18T02:09:38.997Z,74.51
2019-05-18T02:10:38.997Z,74.51
2019-05-18T02:11:38.975Z,73.90
2019-05-18T02:12:38.974Z,74.31
2019-05-18T02:13:38.968Z,74.51
2019-05-18T02:14:38.941Z,74.21
2019-05-18T02:15:38.943Z,74.51
2019-05-18T02:16:43.941Z,74.21
2019-05-18T02:17:38.910Z,74.51
2019-05-18T02:18:38.899Z,74.21
2019-05-18T02:19:38.893Z,74.41
2019-05-18T02:20:38.892Z,74.21
2019-05-18T02:21:38.863Z,74.31
2019-05-18T02:22:38.856Z,74.31
2019-05-18T02:23:38.840Z,74.21
2019-05-18T02:24:38.828Z,74.31
2019-05-18T02:25:38.831Z,74.31
2019-05-18T02:26:38.810Z,75.43
2019-05-18T02:27:43.845Z,74.82
2019-05-18T02:28:38.785Z,74.31
2019-05-18T02:29:38.781Z,75.26
2019-05-18T02:30:38.775Z,75.46
2019-05-18T02:31:38.760Z,74.55
2019-05-18T02:32:38.739Z,75.16
2019-05-18T02:33:38.727Z,74.95
2019-05-18T02:34:38.719Z,75.26
2019-05-18T02:35:38.719Z,76.07
2019-05-18T02:36:38.715Z,76.10
2019-05-18T02:37:38.685Z,76.72
2019-05-18T02:38:43.703Z,76.61
2019-05-18T02:39:38.665Z,76.41
2019-05-18T02:40:38.660Z,76.41
2019-05-18T02:41:38.640Z,76.61
2019-05-18T02:42:38.631Z,77.22
2019-05-18T02:43:38.625Z,77.56
2019-05-18T02:44:38.602Z,77.56
2019-05-18T02:45:38.649Z,78.28
2019-05-18T02:46:38.583Z,78.52
2019-05-18T02:47:38.576Z,78.82
2019-05-18T02:48:48.631Z,79.02
2019-05-18T02:49:44.568Z,79.13
2019-05-18T02:50:38.559Z,78.82
2019-05-18T02:51:38.523Z,79.53
2019-05-18T02:52:38.519Z,79.43
2019-05-18T02:53:38.498Z,79.13
2019-05-18T02:54:38.488Z,79.74
2019-05-18T02:55:38.531Z,79.57
2019-05-18T02:56:38.471Z,79.63
2019-05-18T02:57:38.467Z,79.57
2019-05-18T02:58:38.452Z,80.08
2019-05-18T02:59:38.431Z,80.08
2019-05-18T03:00:43.455Z,80.08
2019-05-18T03:01:38.412Z,80.18
2019-05-18T03:02:38.396Z,80.08
2019-05-18T03:03:38.387Z,80.59
2019-05-18T03:04:38.380Z,80.79
2019-05-18T03:05:38.384Z,81.20
2019-05-18T03:06:38.361Z,81.30
2019-05-18T03:07:38.340Z,81.30
2019-05-18T03:08:38.330Z,81.34
2019-05-18T03:09:38.336Z,81.40
2019-05-18T03:10:38.325Z,81.44
2019-05-18T03:11:43.319Z,81.51
2019-05-18T03:12:38.296Z,81.60
2019-05-18T03:13:38.278Z,81.95
2019-05-18T03:14:38.265Z,81.95
2019-05-18T03:15:38.257Z,82.05
2019-05-18T03:16:38.262Z,81.85
2019-05-18T03:17:38.229Z,81.85
2019-05-18T03:18:38.226Z,82.05
2019-05-18T03:19:38.215Z,81.74
2019-05-18T03:20:38.203Z,81.51
2019-05-18T03:21:38.198Z,81.30
2019-05-18T03:22:43.196Z,81.44
2019-05-18T03:23:38.171Z,81.74
2019-05-18T03:24:38.160Z,81.85
2019-05-18T03:25:38.147Z,82.05
2019-05-18T03:26:38.141Z,81.85
2019-05-18T03:27:38.142Z,81.95
2019-05-18T03:28:38.109Z,81.54
2019-05-18T03:29:38.101Z,81.44
2019-05-18T03:30:38.089Z,81.54
2019-05-18T03:31:38.099Z,81.85
2019-05-18T03:32:38.065Z,81.74
2019-05-18T03:33:43.091Z,81.54
2019-05-18T03:34:38.048Z,81.65
2019-05-18T03:35:38.033Z,81.54
2019-05-18T03:36:38.036Z,81.44
2019-05-18T03:37:38.022Z,81.24
2019-05-18T03:38:38.000Z,80.83
2019-05-18T03:39:37.996Z,79.91
2019-05-18T03:40:37.977Z,79.50
2019-05-18T03:41:37.981Z,79.50
2019-05-18T03:42:37.971Z,79.61
2019-05-18T03:43:37.956Z,79.30
2019-05-18T03:44:42.969Z,79.61
2019-05-18T03:45:37.933Z,79.30
2019-05-18T03:46:37.924Z,79.41
2019-05-18T03:47:37.901Z,79.71
2019-05-18T03:48:37.894Z,79.61
2019-05-18T03:49:37.879Z,79.61
2019-05-18T03:50:37.889Z,79.30
2019-05-18T03:51:37.871Z,79.10
2019-05-18T03:52:37.846Z,78.89
2019-05-18T03:53:37.835Z,79.20
2019-05-18T03:54:37.826Z,78.89
2019-05-18T03:55:42.913Z,79.20
2019-05-18T03:56:37.824Z,79.20
2019-05-18T03:57:37.805Z,79.00
2019-05-18T03:58:37.781Z,79.00
2019-05-18T03:59:37.772Z,78.89
2019-05-18T04:00:37.769Z,79.20
2019-05-18T04:01:37.750Z,79.20
2019-05-18T04:02:37.767Z,79.00
2019-05-18T04:03:37.742Z,78.89
2019-05-18T04:04:37.714Z,79.00
2019-05-18T04:05:37.706Z,78.45
2019-05-18T04:06:42.719Z,78.25
2019-05-18T04:07:37.694Z,78.66
2019-05-18T04:08:37.670Z,78.66
2019-05-18T04:09:37.660Z,78.66
2019-05-18T04:10:37.658Z,78.55
2019-05-18T04:11:37.642Z,78.55
2019-05-18T04:12:37.646Z,78.66
2019-05-18T04:13:37.612Z,78.55
2019-05-18T04:14:37.607Z,78.55
2019-05-18T04:15:37.605Z,78.76
2019-05-18T04:16:37.585Z,78.86
2019-05-18T04:17:42.604Z,78.66
2019-05-18T04:18:37.567Z,78.66
2019-05-18T04:19:46.165Z,78.55
2019-05-18T04:20:38.542Z,78.35
2019-05-18T04:21:37.529Z,78.45
2019-05-18T04:22:37.580Z,78.66
2019-05-18T04:23:37.509Z,78.66
2019-05-18T04:24:37.496Z,78.55
2019-05-18T04:25:37.543Z,78.15
2019-05-18T04:26:37.472Z,77.74
2019-05-18T04:27:37.473Z,77.53
2019-05-18T04:28:42.475Z,76.99
2019-05-18T04:29:37.495Z,77.33
2019-05-18T04:30:37.448Z,76.68
2019-05-18T04:31:37.421Z,77.20
2019-05-18T04:32:37.430Z,76.89
2019-05-18T04:33:37.397Z,76.99
2019-05-18T04:34:37.387Z,76.48
2019-05-18T04:35:37.375Z,76.75
2019-05-18T04:36:37.364Z,76.48
2019-05-18T04:37:37.365Z,76.59
2019-05-18T04:38:37.364Z,76.79
2019-05-18T04:39:42.359Z,76.59
2019-05-18T04:40:37.318Z,76.48
2019-05-18T04:41:37.331Z,76.38
2019-05-18T04:42:37.311Z,76.65
2019-05-18T04:43:37.286Z,76.89
2019-05-18T04:44:37.274Z,76.99
2019-05-18T04:45:37.269Z,76.99
2019-05-18T04:46:37.260Z,77.29
2019-05-18T04:47:37.262Z,77.29
2019-05-18T04:48:37.304Z,77.29
2019-05-18T04:49:37.219Z,77.09
2019-05-18T04:50:42.236Z,77.50
2019-05-18T04:51:37.199Z,77.50
2019-05-18T04:52:37.205Z,77.70
2019-05-18T04:53:37.191Z,77.60
2019-05-18T04:54:37.166Z,77.50
2019-05-18T04:55:37.172Z,77.50
2019-05-18T04:56:37.144Z,77.81
2019-05-18T04:57:37.178Z,77.50
2019-05-18T04:58:37.123Z,77.40
2019-05-18T04:59:37.118Z,77.56
2019-05-18T05:00:37.108Z,77.70
2019-05-18T05:01:42.117Z,78.11
2019-05-18T05:02:37.083Z,78.62
2019-05-18T05:03:37.081Z,78.62
2019-05-18T05:04:37.059Z,78.52
2019-05-18T05:05:37.049Z,78.41
2019-05-18T05:06:37.090Z,78.62
2019-05-18T05:07:37.062Z,78.41
2019-05-18T05:08:37.022Z,78.58
2019-05-18T05:09:36.998Z,78.52
2019-05-18T05:10:37.009Z,78.72
2019-05-18T05:11:36.977Z,77.87
2019-05-18T05:12:41.992Z,77.67
2019-05-18T05:13:36.967Z,77.47
2019-05-18T05:14:36.942Z,77.67
2019-05-18T05:15:36.934Z,77.77
2019-05-18T05:16:36.931Z,77.26
2019-05-18T05:17:36.910Z,77.47
2019-05-18T05:18:36.909Z,77.67
2019-05-18T05:19:36.889Z,77.77
2019-05-18T05:20:36.877Z,77.67
2019-05-18T05:21:36.864Z,77.33
2019-05-18T05:22:36.855Z,76.92
2019-05-18T05:23:41.876Z,77.22
2019-05-18T05:24:36.834Z,77.02
2019-05-18T05:25:36.883Z,76.72
2019-05-18T05:26:39.490Z,77.22
2019-05-18T05:27:36.802Z,77.12
2019-05-18T05:28:36.810Z,76.92
2019-05-18T05:29:36.785Z,77.12
2019-05-18T05:30:36.767Z,76.92
2019-05-18T05:31:36.761Z,76.92
2019-05-18T05:32:36.766Z,77.12
2019-05-18T05:33:36.747Z,76.92
2019-05-18T05:34:41.747Z,77.22
2019-05-18T05:35:37.824Z,76.72
2019-05-18T05:36:36.706Z,77.22
2019-05-18T05:37:36.691Z,77.12
2019-05-18T05:38:36.693Z,76.92
2019-05-18T05:39:36.681Z,76.72
2019-05-18T05:40:36.659Z,77.02
2019-05-18T05:41:36.652Z,77.02
2019-05-18T05:42:36.637Z,76.92
2019-05-18T05:43:36.639Z,76.72
2019-05-18T05:44:36.615Z,76.92
2019-05-18T05:45:41.644Z,77.09
2019-05-18T05:46:37.437Z,76.98
2019-05-18T05:47:36.583Z,76.58
2019-05-18T05:48:36.596Z,76.98
2019-05-18T05:49:36.566Z,76.68
2019-05-18T05:50:36.842Z,77.09
2019-05-18T05:51:36.538Z,77.09
2019-05-18T05:52:36.528Z,76.88
2019-05-18T05:53:36.517Z,77.19
2019-05-18T05:54:36.516Z,77.09
2019-05-18T05:55:36.495Z,77.22
2019-05-18T05:56:41.507Z,77.22
2019-05-18T05:57:36.473Z,77.33
2019-05-18T05:58:36.461Z,77.22
2019-05-18T05:59:36.466Z,77.19
2019-05-18T06:00:36.440Z,76.88
2019-05-18T06:01:36.432Z,77.19
2019-05-18T06:02:36.420Z,77.19
2019-05-18T06:03:36.409Z,77.39
2019-05-18T06:04:36.417Z,77.22
2019-05-18T06:05:36.385Z,77.63
2019-05-18T06:06:36.391Z,77.53
2019-05-18T06:07:41.383Z,78.61
2019-05-18T06:08:36.356Z,77.80
2019-05-18T06:09:36.353Z,78.64
2019-05-18T06:10:36.330Z,77.83
2019-05-18T06:11:36.315Z,77.59
2019-05-18T06:12:36.304Z,77.49
2019-05-18T06:13:36.307Z,77.19
2019-05-18T06:14:36.299Z,77.49
2019-05-18T06:15:36.277Z,77.49
2019-05-18T06:16:36.260Z,77.29
2019-05-18T06:17:36.248Z,77.49
2019-05-18T06:18:41.263Z,76.98
2019-05-18T06:19:36.243Z,76.88
2019-05-18T06:20:50.447Z,76.88
2019-05-18T06:21:37.204Z,76.64
2019-05-18T06:22:36.196Z,76.64
2019-05-18T06:23:36.183Z,76.75
2019-05-18T06:24:36.185Z,76.44
2019-05-18T06:25:36.161Z,76.54
2019-05-18T06:26:36.149Z,76.34
2019-05-18T06:27:36.137Z,76.24
2019-05-18T06:28:36.125Z,76.44
2019-05-18T06:29:41.156Z,76.34
2019-05-18T06:30:36.113Z,76.34
2019-05-18T06:31:36.101Z,76.34
2019-05-18T06:32:36.088Z,76.54
2019-05-18T06:33:36.073Z,76.24
2019-05-18T06:34:36.070Z,76.24
2019-05-18T06:35:36.054Z,76.34
2019-05-18T06:36:36.036Z,76.51
2019-05-18T06:37:36.038Z,76.51
2019-05-18T06:38:36.018Z,76.40
2019-05-18T06:39:36.014Z,75.90
2019-05-18T06:40:41.049Z,76.20
2019-05-18T06:41:35.979Z,75.86
2019-05-18T06:42:36.001Z,75.29
2019-05-18T06:43:35.963Z,75.66
2019-05-18T06:44:37.801Z,75.25
2019-05-18T06:45:35.935Z,74.95
2019-05-18T06:46:35.923Z,74.85
2019-05-18T06:47:35.911Z,75.05
2019-05-18T06:48:35.913Z,75.25
2019-05-18T06:49:35.929Z,74.91
2019-05-18T06:50:35.897Z,75.25
2019-05-18T06:51:40.889Z,74.71
2019-05-18T06:52:35.864Z,74.61
2019-05-18T06:53:35.847Z,74.81
2019-05-18T06:54:35.835Z,75.22
2019-05-18T06:55:35.832Z,74.71
2019-05-18T06:56:35.808Z,74.00
2019-05-18T06:57:35.807Z,74.00
2019-05-18T06:58:35.793Z,74.37
2019-05-18T06:59:35.776Z,74.27
2019-05-18T07:00:35.775Z,74.07
2019-05-18T07:01:35.753Z,74.07
2019-05-18T07:02:40.764Z,74.27
2019-05-18T07:03:35.732Z,74.17
2019-05-18T07:04:35.734Z,74.17
2019-05-18T07:05:36.033Z,74.37
2019-05-18T07:06:35.714Z,74.48
2019-05-18T07:07:35.686Z,74.57
2019-05-18T07:08:35.673Z,74.37
2019-05-18T07:09:35.664Z,74.57
2019-05-18T07:10:35.704Z,74.27
2019-05-18T07:11:35.646Z,73.97
2019-05-18T07:12:35.663Z,74.07
2019-05-18T07:13:40.641Z,74.77
2019-05-18T07:14:35.607Z,74.98
2019-05-18T07:15:35.809Z,74.30
2019-05-18T07:16:35.586Z,74.91
2019-05-18T07:17:35.579Z,74.71
2019-05-18T07:18:35.563Z,74.48
2019-05-18T07:19:35.551Z,74.27
2019-05-18T07:20:35.554Z,75.28
2019-05-18T07:21:35.552Z,74.51
2019-05-18T07:22:35.525Z,75.01
2019-05-18T07:23:35.507Z,75.12
2019-05-18T07:24:40.520Z,75.73
2019-05-18T07:25:35.526Z,75.42
2019-05-18T07:26:35.475Z,75.32
2019-05-18T07:27:35.463Z,75.52
2019-05-18T07:28:35.452Z,75.22
2019-05-18T07:29:35.449Z,76.06
2019-05-18T07:30:35.430Z,75.93
2019-05-18T07:31:35.434Z,75.96
2019-05-18T07:32:35.513Z,75.96
2019-05-18T07:33:35.396Z,75.96
2019-05-18T07:34:35.386Z,75.96
2019-05-18T07:35:40.416Z,75.73
2019-05-18T07:36:35.383Z,75.52
2019-05-18T07:37:35.359Z,75.22
2019-05-18T07:38:35.339Z,74.91
2019-05-18T07:39:36.163Z,74.30
2019-05-18T07:40:35.316Z,75.22
2019-05-18T07:41:46.209Z,75.22
2019-05-18T07:42:36.298Z,75.32
2019-05-18T07:43:35.291Z,74.81
2019-05-18T07:44:35.270Z,75.12
2019-05-18T07:45:35.264Z,74.91
2019-05-18T07:46:40.288Z,75.73
2019-05-18T07:47:35.242Z,75.28
2019-05-18T07:48:35.228Z,75.28
2019-05-18T07:49:35.228Z,75.08
2019-05-18T07:50:35.212Z,75.49
2019-05-18T07:51:37.348Z,75.08
2019-05-18T07:52:35.188Z,74.88
2019-05-18T07:53:35.229Z,75.08
2019-05-18T07:54:35.160Z,74.17
2019-05-18T07:55:35.197Z,74.44
2019-05-18T07:56:35.153Z,74.33
2019-05-18T07:57:40.153Z,74.84
2019-05-18T07:58:35.129Z,74.10
2019-05-18T07:59:35.109Z,73.80
2019-05-18T08:00:35.145Z,74.07
2019-05-18T08:01:35.107Z,73.46
2019-05-18T08:02:35.073Z,73.56
2019-05-18T08:03:35.062Z,73.56
2019-05-18T08:04:35.068Z,73.32
2019-05-18T08:05:35.039Z,73.43
2019-05-18T08:06:35.039Z,72.72
2019-05-18T08:07:35.020Z,72.72
2019-05-18T08:08:40.029Z,72.41
2019-05-18T08:09:35.008Z,71.87
2019-05-18T08:10:34.990Z,71.67
2019-05-18T08:11:34.991Z,71.13
2019-05-18T08:12:35.006Z,70.73
2019-05-18T08:13:34.951Z,70.02
2019-05-18T08:14:34.938Z,69.98
2019-05-18T08:15:34.928Z,69.58
2019-05-18T08:16:34.927Z,68.87
2019-05-18T08:17:34.921Z,69.28
2019-05-18T08:18:34.898Z,68.47
2019-05-18T08:19:39.905Z,68.74
2019-05-18T08:20:34.873Z,68.57
2019-05-18T08:21:34.862Z,68.57
2019-05-18T08:22:34.866Z,68.64
2019-05-18T08:23:34.838Z,68.44
2019-05-18T08:24:34.833Z,68.64
2019-05-18T08:25:34.824Z,68.64
2019-05-18T08:26:34.809Z,68.37
2019-05-18T08:27:34.816Z,68.87
2019-05-18T08:28:34.788Z,68.74
2019-05-18T08:29:34.775Z,67.83
2019-05-18T08:30:39.787Z,67.53
2019-05-18T08:31:34.800Z,67.53
2019-05-18T08:32:34.765Z,67.53
2019-05-18T08:33:34.736Z,67.53
2019-05-18T08:34:34.722Z,68.13
2019-05-18T08:35:34.711Z,68.57
2019-05-18T08:36:34.700Z,68.13
2019-05-18T08:37:34.705Z,68.37
2019-05-18T08:38:34.675Z,68.54
2019-05-18T08:39:34.698Z,68.54
2019-05-18T08:40:34.654Z,68.44
2019-05-18T08:41:39.665Z,68.33
2019-05-18T08:42:34.643Z,67.83
2019-05-18T08:43:34.620Z,68.01
2019-05-18T08:44:34.609Z,68.21
2019-05-18T08:45:34.596Z,67.80
2019-05-18T08:46:34.617Z,68.01
2019-05-18T08:47:34.595Z,68.21
2019-05-18T08:48:34.569Z,67.70
2019-05-18T08:49:34.585Z,68.10
2019-05-18T08:50:34.541Z,68.01
2019-05-18T08:51:34.531Z,68.44
2019-05-18T08:52:39.558Z,68.84
2019-05-18T08:53:34.508Z,69.15
2019-05-18T08:54:34.500Z,69.04
2019-05-18T08:55:34.484Z,68.44
2019-05-18T08:56:34.514Z,68.61
2019-05-18T08:57:34.471Z,68.21
2019-05-18T08:58:34.476Z,68.61
2019-05-18T08:59:34.458Z,68.51
2019-05-18T09:00:34.430Z,68.51
2019-05-18T09:01:34.418Z,68.61
2019-05-18T09:02:34.414Z,68.51
2019-05-18T09:03:39.429Z,68.17
2019-05-18T09:04:34.388Z,68.37
2019-05-18T09:05:34.375Z,68.68
2019-05-18T09:06:34.364Z,67.97
2019-05-18T09:07:34.359Z,67.97
2019-05-18T09:08:34.357Z,67.57
2019-05-18T09:09:34.351Z,67.63
2019-05-18T09:10:34.349Z,67.33
2019-05-18T09:11:34.317Z,66.93
2019-05-18T09:12:34.296Z,67.47
2019-05-18T09:13:34.304Z,67.27
2019-05-18T09:14:39.307Z,67.16
2019-05-18T09:15:34.275Z,66.93
2019-05-18T09:16:34.266Z,66.93
2019-05-18T09:17:34.241Z,66.42
2019-05-18T09:18:34.265Z,66.33
2019-05-18T09:19:34.224Z,66.42
2019-05-18T09:20:34.218Z,66.33
2019-05-18T09:21:34.196Z,65.92
2019-05-18T09:22:34.186Z,65.52
2019-05-18T09:23:34.192Z,66.13
2019-05-18T09:24:34.163Z,66.60
2019-05-18T09:25:39.176Z,66.50
2019-05-18T09:26:34.139Z,66.33
2019-05-18T09:27:34.127Z,66.33
2019-05-18T09:28:34.149Z,65.52
2019-05-18T09:29:34.107Z,65.92
2019-05-18T09:30:34.102Z,65.22
2019-05-18T09:31:34.085Z,64.78
2019-05-18T09:32:34.077Z,64.48
2019-05-18T09:33:34.076Z,62.77
2019-05-18T09:34:34.050Z,63.04
2019-05-18T09:35:34.127Z,62.94
2019-05-18T09:36:39.053Z,62.84
2019-05-18T09:37:34.030Z,63.14
2019-05-18T09:38:34.023Z,62.71
2019-05-18T09:39:33.999Z,63.11
2019-05-18T09:40:33.983Z,62.64
2019-05-18T09:41:34.018Z,62.54
2019-05-18T09:42:33.961Z,63.14
2019-05-18T09:43:33.971Z,62.97
2019-05-18T09:44:33.947Z,62.87
2019-05-18T09:45:33.933Z,63.34
2019-05-18T09:46:33.937Z,62.74
2019-05-18T09:47:38.934Z,62.94
2019-05-18T09:48:33.914Z,62.91
2019-05-18T09:49:33.892Z,63.01
2019-05-18T09:50:33.872Z,62.30
2019-05-18T09:51:33.864Z,62.30
2019-05-18T09:52:44.850Z,62.10
2019-05-18T09:53:34.858Z,62.01
2019-05-18T09:54:33.864Z,62.21
2019-05-18T09:55:33.860Z,62.01
2019-05-18T09:56:33.810Z,62.30
2019-05-18T09:57:33.794Z,62.84
2019-05-18T09:58:38.883Z,62.84
2019-05-18T09:59:33.804Z,62.64
2019-05-18T10:00:38.476Z,62.71
2019-05-18T10:01:34.824Z,62.30
2019-05-18T10:02:33.741Z,61.67
2019-05-18T10:03:33.748Z,61.77
2019-05-18T10:04:33.723Z,61.17
2019-05-18T10:05:33.719Z,61.17
2019-05-18T10:06:33.695Z,60.97
2019-05-18T10:07:33.683Z,60.16
2019-05-18T10:08:33.672Z,61.07
2019-05-18T10:09:39.680Z,60.97
2019-05-18T10:10:33.868Z,61.27
2019-05-18T10:11:38.496Z,61.27
2019-05-18T10:12:34.626Z,61.90
2019-05-18T10:13:33.627Z,61.17
2019-05-18T10:14:33.649Z,61.17
2019-05-18T10:15:33.597Z,61.37
2019-05-18T10:16:33.585Z,60.33
2019-05-18T10:17:33.578Z,60.44
2019-05-18T10:18:33.563Z,60.53
2019-05-18T10:19:33.564Z,60.03
2019-05-18T10:20:38.563Z,60.03
2019-05-18T10:21:33.547Z,60.11
2019-05-18T10:22:33.516Z,60.21
2019-05-18T10:23:33.513Z,59.80
2019-05-18T10:24:33.506Z,59.50
2019-05-18T10:25:33.843Z,59.30
2019-05-18T10:26:33.584Z,59.41
2019-05-18T10:27:33.485Z,59.78
2019-05-18T10:28:33.448Z,59.67
2019-05-18T10:29:33.615Z,60.18
2019-05-18T10:30:33.434Z,58.40
2019-05-18T10:31:38.439Z,58.97
2019-05-18T10:32:33.423Z,59.08
2019-05-18T10:33:33.405Z,58.87
2019-05-18T10:34:33.837Z,58.84
2019-05-18T10:35:33.375Z,57.54
2019-05-18T10:36:33.387Z,56.63
2019-05-18T10:37:33.349Z,56.91
2019-05-18T10:38:33.342Z,56.91
2019-05-18T10:39:33.460Z,56.91
2019-05-18T10:40:33.406Z,56.08
2019-05-18T10:41:33.341Z,56.51
2019-05-18T10:42:38.321Z,56.61
2019-05-18T10:43:33.289Z,56.10
2019-05-18T10:44:33.282Z,56.81
2019-05-18T10:45:33.269Z,56.81
2019-05-18T10:46:33.258Z,56.68
2019-05-18T10:47:33.263Z,56.28
2019-05-18T10:48:33.257Z,56.48
2019-05-18T10:49:33.355Z,56.45
2019-05-18T10:50:33.210Z,56.05
2019-05-18T10:51:33.195Z,56.26
2019-05-18T10:52:33.184Z,55.82
2019-05-18T10:53:38.193Z,56.43
2019-05-18T10:54:33.182Z,56.02
2019-05-18T10:55:33.167Z,56.20
2019-05-18T10:56:33.143Z,56.63
2019-05-18T10:57:33.136Z,56.73
2019-05-18T10:58:33.119Z,56.52
2019-05-18T10:59:33.110Z,56.73
2019-05-18T11:00:33.109Z,56.80
2019-05-18T11:01:33.094Z,56.70
2019-05-18T11:02:33.145Z,57.50
2019-05-18T11:03:33.061Z,56.50
2019-05-18T11:04:38.109Z,56.67
2019-05-18T11:05:33.058Z,56.87
2019-05-18T11:06:33.030Z,56.24
2019-05-18T11:07:33.027Z,55.74
2019-05-18T11:08:33.010Z,55.12
2019-05-18T11:09:32.997Z,56.05
2019-05-18T11:10:33.001Z,56.37
2019-05-18T11:11:32.974Z,56.24
2019-05-18T11:12:32.977Z,55.52
2019-05-18T11:13:32.956Z,54.27
2019-05-18T11:14:32.944Z,53.12
2019-05-18T11:15:37.969Z,52.27
2019-05-18T11:16:32.927Z,50.85
2019-05-18T11:17:32.912Z,50.70
2019-05-18T11:18:32.899Z,50.30
2019-05-18T11:19:32.888Z,50.60
2019-05-18T11:20:32.892Z,50.40
2019-05-18T11:21:32.866Z,49.18
2019-05-18T11:22:32.855Z,49.06
2019-05-18T11:23:43.407Z,48.34
2019-05-18T11:24:33.936Z,48.36
2019-05-18T11:25:32.897Z,48.96
2019-05-18T11:26:37.862Z,48.16
2019-05-18T11:27:32.827Z,47.54
2019-05-18T11:28:32.794Z,48.46
2019-05-18T11:29:32.790Z,47.54
2019-05-18T11:30:32.792Z,47.32
2019-05-18T11:31:32.761Z,47.25
2019-05-18T11:32:32.747Z,47.47
2019-05-18T11:33:32.746Z,47.89
2019-05-18T11:34:32.726Z,48.61
2019-05-18T11:35:32.719Z,49.43
2019-05-18T11:36:32.717Z,50.45
2019-05-18T11:37:37.724Z,50.37
2019-05-18T11:38:32.714Z,51.37
2019-05-18T11:39:32.987Z,52.09
2019-05-18T11:40:32.661Z,52.00
2019-05-18T11:41:32.664Z,52.00
2019-05-18T11:42:32.678Z,51.47
2019-05-18T11:43:32.630Z,50.87
2019-05-18T11:44:32.668Z,50.87
2019-05-18T11:45:32.623Z,51.37
2019-05-18T11:46:32.680Z,51.05
2019-05-18T11:47:32.642Z,50.23
2019-05-18T11:48:37.617Z,50.52
2019-05-18T11:49:32.626Z,49.30
2019-05-18T11:50:32.557Z,48.91
2019-05-18T11:51:32.557Z,49.70
2019-05-18T11:52:32.530Z,48.98
2019-05-18T11:53:32.795Z,49.16
2019-05-18T11:54:32.509Z,48.46
2019-05-18T11:55:32.517Z,48.36
2019-05-18T11:56:32.498Z,49.06
2019-05-18T11:57:32.480Z,48.98
2019-05-18T11:58:32.481Z,48.56
2019-05-18T11:59:37.476Z,47.94
2019-05-18T12:00:32.449Z,47.64
2019-05-18T12:01:32.550Z,47.62
2019-05-18T12:02:32.426Z,46.70
2019-05-18T12:03:32.410Z,47.62
2019-05-18T12:04:32.406Z,47.14
2019-05-18T12:05:32.394Z,47.44
2019-05-18T12:06:32.393Z,47.94
2019-05-18T12:07:32.372Z,47.62
2019-05-18T12:08:32.361Z,46.98
2019-05-18T12:09:32.381Z,46.06
2019-05-18T12:10:37.398Z,46.06
2019-05-18T12:11:32.373Z,46.28
2019-05-18T12:12:32.323Z,46.38
2019-05-18T12:13:32.301Z,46.38
2019-05-18T12:14:32.296Z,46.48
2019-05-18T12:15:32.287Z,46.38
2019-05-18T12:16:32.302Z,46.90
2019-05-18T12:17:32.263Z,46.80
2019-05-18T12:18:32.260Z,47.02
2019-05-18T12:19:32.247Z,47.42
2019-05-18T12:20:32.235Z,47.54
2019-05-18T12:21:37.255Z,48.56
2019-05-18T12:22:32.207Z,48.26
2019-05-18T12:23:32.200Z,48.26
2019-05-18T12:24:32.216Z,48.79
2019-05-18T12:25:32.174Z,49.38
2019-05-18T12:26:32.193Z,49.90
2019-05-18T12:27:32.168Z,50.43
2019-05-18T12:28:32.143Z,50.92
2019-05-18T12:29:32.144Z,50.52
2019-05-18T12:30:32.119Z,50.73
2019-05-18T12:31:32.110Z,50.45
2019-05-18T12:32:37.154Z,50.87
2019-05-18T12:33:32.092Z,50.65
2019-05-18T12:34:32.082Z,50.77
2019-05-18T12:35:32.167Z,51.57
2019-05-18T12:36:32.072Z,50.87
2019-05-18T12:37:32.060Z,51.70
2019-05-18T12:38:32.051Z,52.09
2019-05-18T12:39:32.022Z,52.62
2019-05-18T12:40:32.016Z,52.64
2019-05-18T12:41:32.024Z,52.52
2019-05-18T12:42:32.006Z,52.12
2019-05-18T12:43:36.999Z,52.22
2019-05-18T12:44:31.964Z,52.52
2019-05-18T12:45:31.962Z,52.12
2019-05-18T12:46:31.973Z,51.32
2019-05-18T12:47:31.956Z,52.42
2019-05-18T12:48:31.922Z,52.42
2019-05-18T12:49:31.912Z,52.02
2019-05-18T12:50:31.930Z,51.12
2019-05-18T12:51:31.890Z,51.54
2019-05-18T12:52:31.898Z,50.45